Time;durP1;ratioP1;P1;durP2;ratioP2;P2;SDS_P1;SDS_P2;PMS_P1;PMS_P2;Temp;Humidity;BMP_temperature;BMP_pressure;BME280_temperature;BME280_humidity;BME280_pressure;Samples;Min_cycle;Max_cycle;Signal;HPM_P1;HPM_P2
2023/09/03 00:00:52;;;;;;;4.93;4.20;;;13.70;99.90;;;;;;5110753;27;20039;-84
2023/09/03 00:03:17;;;;;;;5.45;4.72;;;13.70;99.90;;;;;;5097025;27;20469;-84
2023/09/03 00:05:51;;;;;;;4.30;3.83;;;13.60;99.90;;;;;;5096972;28;20047;-84
2023/09/03 00:08:17;;;;;;;6.70;4.28;;;13.60;99.90;;;;;;5081436;27;20096;-84
2023/09/03 00:10:43;;;;;;;4.97;4.20;;;13.60;99.90;;;;;;5101856;27;20126;-84
2023/09/03 00:13:09;;;;;;;4.70;3.22;;;13.60;99.90;;;;;;5124931;27;20521;-84
2023/09/03 00:15:39;;;;;;;4.78;2.92;;;;;;;;;;5102241;27;20043;-84
2023/09/03 00:18:06;;;;;;;4.45;3.50;;;13.50;99.90;;;;;;5089581;28;20047;-84
2023/09/03 00:20:31;;;;;;;3.50;2.95;;;13.50;99.90;;;;;;5093133;28;20061;-84
2023/09/03 00:22:58;;;;;;;4.20;3.28;;;;;;;;;;5105660;27;20243;-84
2023/09/03 00:25:23;;;;;;;4.38;3.72;;;13.40;99.90;;;;;;5086798;27;20490;-85
2023/09/03 00:27:49;;;;;;;3.92;3.10;;;13.40;99.90;;;;;;5083674;27;20042;-84
2023/09/03 00:30:15;;;;;;;5.80;3.70;;;13.40;99.90;;;;;;5070735;27;20043;-84
2023/09/03 00:32:40;;;;;;;6.82;3.78;;;13.50;99.90;;;;;;5072970;27;20059;-84
2023/09/03 00:35:06;;;;;;;5.05;4.38;;;13.50;99.90;;;;;;5072773;28;20047;-83
2023/09/03 00:37:32;;;;;;;4.88;4.28;;;13.60;99.90;;;;;;5103514;27;20070;-84
2023/09/03 00:39:58;;;;;;;6.45;3.40;;;13.60;99.90;;;;;;5112939;27;20077;-85
2023/09/03 00:42:23;;;;;;;4.93;3.72;;;13.60;99.90;;;;;;5064014;27;20045;-84
2023/09/03 00:44:49;;;;;;;4.80;4.03;;;13.50;99.90;;;;;;5080600;28;20121;-84
2023/09/03 00:47:18;;;;;;;5.40;3.70;;;13.50;99.90;;;;;;5090572;27;20121;-84
2023/09/03 00:49:44;;;;;;;3.90;2.58;;;13.50;99.90;;;;;;5123017;27;20041;-84
2023/09/03 00:52:11;;;;;;;3.08;2.70;;;13.40;99.90;;;;;;5092863;28;20146;-84
2023/09/03 00:54:37;;;;;;;2.58;2.10;;;13.30;99.90;;;;;;5084487;28;20118;-85
2023/09/03 00:57:04;;;;;;;2.30;1.80;;;13.20;99.90;;;;;;5110225;27;20099;-84
2023/09/03 00:59:31;;;;;;;3.07;2.30;;;13.00;99.90;;;;;;5080737;28;20051;-84
2023/09/03 01:01:58;;;;;;;3.50;2.80;;;13.00;99.90;;;;;;5074325;27;21067;-84
2023/09/03 01:04:24;;;;;;;4.05;3.13;;;13.00;99.90;;;;;;5091140;28;20550;-84
2023/09/03 01:06:51;;;;;;;3.28;2.75;;;12.90;99.90;;;;;;5100319;28;20391;-86
2023/09/03 01:09:19;;;;;;;3.80;2.20;;;12.90;99.90;;;;;;5091656;27;20122;-85
2023/09/03 01:11:45;;;;;;;;;;;;;;;;;;5053974;27;20429;-84
2023/09/03 01:14:20;;;;;;;4.47;2.90;;;13.00;99.90;;;;;;5105085;27;19923;-85
2023/09/03 01:16:57;;;;;;;4.10;3.20;;;13.00;99.90;;;;;;5110138;27;20041;-85
2023/09/03 01:19:59;;;;;;;4.38;3.03;;;12.80;99.90;;;;;;5113837;27;20100;-85
2023/09/03 01:22:48;;;;;;;4.03;3.58;;;12.80;99.90;;;;;;5093636;27;20035;-85
2023/09/03 01:25:32;;;;;;;5.70;4.55;;;12.80;99.90;;;;;;5124481;27;20423;-85
2023/09/03 01:28:34;;;;;;;6.35;5.13;;;12.90;99.90;;;;;;5100056;27;20057;-85
2023/09/03 01:31:08;;;;;;;5.57;4.25;;;13.10;99.90;;;;;;5101144;27;20042;-85
2023/09/03 01:33:37;;;;;;;6.10;4.65;;;13.30;99.90;;;;;;5111427;27;20085;-85
2023/09/03 01:36:06;;;;;;;5.78;4.50;;;13.10;99.90;;;;;;5115486;27;20034;-85
2023/09/03 01:38:32;;;;;;;6.85;4.93;;;13.10;99.90;;;;;;5109659;27;20043;-85
2023/09/03 01:40:59;;;;;;;7.53;5.22;;;13.10;99.90;;;;;;5093624;27;20133;-85
2023/09/03 01:43:25;;;;;;;5.20;4.45;;;13.10;99.90;;;;;;5094492;27;20291;-85
2023/09/03 01:46:03;;;;;;;6.22;5.03;;;13.10;99.90;;;;;;5113277;27;20129;-85
2023/09/03 01:48:41;;;;;;;5.22;4.68;;;13.10;99.90;;;;;;5106738;27;20034;-85
2023/09/03 01:51:25;;;;;;;;;;;13.20;99.90;;;;;;5105215;27;20613;-84
2023/09/03 01:54:18;;;;;;;5.72;4.72;;;13.20;99.90;;;;;;5127358;27;19923;-85
2023/09/03 01:57:05;;;;;;;5.75;4.28;;;13.20;99.90;;;;;;5119973;27;20054;-85
2023/09/03 01:59:48;;;;;;;5.32;4.60;;;13.20;99.90;;;;;;5106812;27;20468;-85
2023/09/03 02:02:14;;;;;;;5.15;4.60;;;13.20;99.90;;;;;;5104572;27;20359;-85
2023/09/03 02:04:40;;;;;;;5.43;4.88;;;13.20;99.90;;;;;;5105501;27;20100;-85
2023/09/03 02:07:06;;;;;;;4.50;4.10;;;13.20;99.90;;;;;;5107253;27;20038;-85
2023/09/03 02:09:32;;;;;;;6.72;4.45;;;13.10;99.90;;;;;;5094750;27;20062;-85
2023/09/03 02:11:58;;;;;;;7.40;4.47;;;13.40;99.90;;;;;;5077991;27;20057;-85
2023/09/03 02:14:24;;;;;;;5.30;4.40;;;13.20;99.90;;;;;;5130452;27;20366;-85
2023/09/03 02:16:51;;;;;;;4.85;4.22;;;13.20;99.90;;;;;;5090704;27;20477;-85
2023/09/03 02:19:16;;;;;;;7.43;4.13;;;13.10;99.90;;;;;;5096932;27;20039;-85
2023/09/03 02:21:42;;;;;;;5.97;3.97;;;13.10;99.90;;;;;;5096624;27;20038;-85
2023/09/03 02:24:08;;;;;;;4.25;3.83;;;13.00;99.90;;;;;;5091072;27;20050;-86
2023/09/03 02:26:43;;;;;;;5.85;4.60;;;13.00;99.90;;;;;;5086509;27;20049;-85
2023/09/03 02:29:09;;;;;;;4.65;4.10;;;13.00;99.90;;;;;;5110534;27;20077;-86
2023/09/03 02:31:35;;;;;;;4.38;3.90;;;13.00;99.90;;;;;;5109141;27;20034;-85
2023/09/03 02:34:04;;;;;;;5.22;3.78;;;13.00;99.90;;;;;;5108772;27;20041;-85
2023/09/03 02:36:31;;;;;;;5.32;3.67;;;12.90;99.90;;;;;;5103278;27;20035;-86
2023/09/03 02:39:05;;;;;;;2.97;2.67;;;12.50;99.90;;;;;;5121230;27;20078;-85
2023/09/03 02:41:31;;;;;;;3.28;2.63;;;12.90;99.90;;;;;;5103888;27;20046;-86
2023/09/03 02:44:01;;;;;;;3.15;2.38;;;12.90;99.90;;;;;;5089531;27;20049;-85
2023/09/03 02:46:27;;;;;;;3.50;2.17;;;12.80;99.90;;;;;;5106583;27;20397;-85
2023/09/03 02:48:53;;;;;;;3.33;2.60;;;12.70;99.90;;;;;;5092750;27;20122;-85
2023/09/03 02:51:19;;;;;;;4.22;3.40;;;12.70;99.90;;;;;;5088577;27;20062;-85
2023/09/03 02:53:47;;;;;;;4.20;3.22;;;12.80;99.90;;;;;;5091950;27;20045;-85
2023/09/03 02:56:14;;;;;;;4.95;3.67;;;12.90;99.90;;;;;;5105845;27;20038;-85
2023/09/03 02:58:40;;;;;;;4.47;4.07;;;13.30;99.90;;;;;;5105152;28;20096;-85
2023/09/03 03:01:07;;;;;;;4.75;3.40;;;12.70;99.90;;;;;;5107891;27;20054;-85
2023/09/03 03:03:33;;;;;;;;;;;12.90;99.90;;;;;;5089736;28;20130;-85
2023/09/03 03:06:00;;;;;;;4.00;3.60;;;13.10;99.90;;;;;;5110152;27;20002;-85
2023/09/03 03:08:25;;;;;;;5.82;3.03;;;12.70;99.90;;;;;;5088123;28;20060;-85
2023/09/03 03:10:51;;;;;;;4.97;3.20;;;12.70;99.90;;;;;;5071768;28;20035;-85
2023/09/03 03:13:17;;;;;;;4.03;3.63;;;12.30;99.90;;;;;;5082283;28;20494;-85
2023/09/03 03:15:44;;;;;;;3.67;3.00;;;12.80;99.90;;;;;;5110488;27;20078;-85
2023/09/03 03:18:10;;;;;;;3.92;3.50;;;;;;;;;;5092861;27;20043;-85
2023/09/03 03:20:36;;;;;;;4.32;3.30;;;12.50;99.90;;;;;;5091768;27;20401;-85
2023/09/03 03:23:02;;;;;;;3.10;2.75;;;12.50;99.90;;;;;;5070839;28;20035;-85
2023/09/03 03:25:27;;;;;;;3.17;2.88;;;12.50;99.90;;;;;;5090886;27;20061;-85
2023/09/03 03:27:53;;;;;;;3.78;2.65;;;12.40;99.90;;;;;;5077838;27;20080;-85
2023/09/03 03:30:19;;;;;;;3.05;2.60;;;12.40;99.90;;;;;;5076474;27;20106;-85
2023/09/03 03:32:44;;;;;;;3.17;2.88;;;12.40;99.90;;;;;;5090030;28;20035;-84
2023/09/03 03:35:25;;;;;;;2.97;2.65;;;12.30;99.90;;;;;;5089727;27;20055;-85
2023/09/03 03:37:58;;;;;;;4.05;3.08;;;12.30;99.90;;;;;;5110539;27;20051;-85
2023/09/03 03:40:24;;;;;;;3.30;3.00;;;12.40;99.90;;;;;;5112327;27;20034;-84
2023/09/03 03:42:50;;;;;;;3.83;3.38;;;12.40;99.90;;;;;;5100224;28;20402;-84
2023/09/03 03:45:21;;;;;;;3.80;3.40;;;12.40;99.90;;;;;;5106939;27;20490;-84
2023/09/03 03:47:48;;;;;;;3.25;2.60;;;12.30;99.90;;;;;;5111310;27;20041;-84
2023/09/03 03:50:14;;;;;;;3.13;2.75;;;12.40;99.90;;;;;;5078513;27;20041;-84
2023/09/03 03:52:40;;;;;;;3.55;2.83;;;12.40;99.90;;;;;;5094512;27;20042;-84
2023/09/03 03:55:06;;;;;;;2.85;2.00;;;12.40;99.90;;;;;;5088080;27;20548;-84
2023/09/03 03:57:32;;;;;;;2.65;1.33;;;12.40;99.90;;;;;;5076828;27;20082;-84
2023/09/03 03:59:58;;;;;;;3.70;2.13;;;12.40;99.90;;;;;;5091818;27;20078;-84
2023/09/03 04:02:24;;;;;;;2.20;1.73;;;12.30;99.90;;;;;;5074043;27;20508;-84
2023/09/03 04:04:53;;;;;;;2.67;1.88;;;12.20;99.90;;;;;;5083263;27;20431;-84
2023/09/03 04:07:19;;;;;;;2.53;2.03;;;;;;;;;;5107949;27;20034;-84
2023/09/03 04:09:45;;;;;;;2.28;1.73;;;12.10;99.90;;;;;;5107974;27;20037;-84
2023/09/03 04:12:11;;;;;;;2.05;1.85;;;12.10;99.90;;;;;;5116293;27;20046;-83
2023/09/03 04:14:37;;;;;;;3.40;1.83;;;12.10;99.90;;;;;;5081172;27;20030;-84
2023/09/03 04:17:04;;;;;;;2.58;2.22;;;12.00;99.90;;;;;;5092975;27;20050;-84
2023/09/03 04:19:29;;;;;;;3.13;1.97;;;12.00;99.90;;;;;;5092476;27;20127;-84
2023/09/03 04:21:55;;;;;;;3.10;2.35;;;12.00;99.90;;;;;;5106468;27;20070;-84
2023/09/03 04:24:21;;;;;;;4.53;2.65;;;12.00;99.90;;;;;;5092637;27;20051;-84
2023/09/03 04:26:46;;;;;;;2.97;2.60;;;12.00;99.90;;;;;;5078294;27;20172;-84
2023/09/03 04:29:12;;;;;;;3.80;2.80;;;12.00;99.90;;;;;;5112085;27;20099;-84
2023/09/03 04:31:41;;;;;;;3.33;2.53;;;12.00;99.90;;;;;;5100909;27;20042;-84
2023/09/03 04:34:07;;;;;;;3.50;2.58;;;12.10;99.90;;;;;;5074042;27;20039;-84
2023/09/03 04:36:34;;;;;;;5.68;2.92;;;12.00;99.90;;;;;;5093960;27;20089;-84
2023/09/03 04:39:00;;;;;;;4.17;2.37;;;12.10;99.90;;;;;;5073280;27;20529;-84
2023/09/03 04:41:25;;;;;;;3.53;3.00;;;12.10;99.90;;;;;;5093465;27;20046;-84
2023/09/03 04:44:06;;;;;;;4.65;3.05;;;12.00;99.90;;;;;;5092502;27;20047;-85
2023/09/03 04:46:31;;;;;;;3.45;2.90;;;12.10;99.90;;;;;;5100023;27;20125;-84
2023/09/03 04:48:57;;;;;;;3.95;3.15;;;12.10;99.90;;;;;;5097944;27;20148;-84
2023/09/03 04:51:23;;;;;;;3.95;2.92;;;12.10;99.90;;;;;;5076631;27;20403;-84
2023/09/03 04:53:48;;;;;;;3.83;2.72;;;12.10;99.90;;;;;;5091129;27;20039;-84
2023/09/03 04:56:14;;;;;;;3.50;2.72;;;12.10;99.90;;;;;;5115542;27;20039;-84
2023/09/03 04:58:40;;;;;;;3.28;2.80;;;12.10;99.90;;;;;;5076699;27;20511;-84
2023/09/03 05:01:26;;;;;;;2.47;2.22;;;12.10;99.90;;;;;;5075132;27;20046;-84
2023/09/03 05:03:52;;;;;;;3.10;2.80;;;12.10;99.90;;;;;;5138667;27;20051;-84
2023/09/03 05:06:17;;;;;;;3.05;2.58;;;12.10;99.90;;;;;;5104397;27;20410;-84
2023/09/03 05:08:45;;;;;;;3.33;3.00;;;12.10;99.90;;;;;;5106829;27;20055;-84
2023/09/03 05:11:12;;;;;;;4.00;3.45;;;12.20;99.90;;;;;;5107183;27;20092;-84
2023/09/03 05:13:41;;;;;;;3.38;3.08;;;12.20;99.90;;;;;;5101901;27;20062;-84
2023/09/03 05:16:07;;;;;;;4.65;2.60;;;12.20;99.90;;;;;;5092313;27;20501;-84
2023/09/03 05:18:34;;;;;;;2.45;1.90;;;12.30;99.90;;;;;;5112808;27;20385;-84
2023/09/03 05:21:08;;;;;;;2.65;2.10;;;12.30;99.90;;;;;;5077314;27;20128;-84
2023/09/03 05:23:35;;;;;;;2.28;1.75;;;12.30;99.90;;;;;;5107649;27;20115;-85
2023/09/03 05:26:01;;;;;;;4.93;1.90;;;12.40;99.90;;;;;;5080713;27;20050;-84
2023/09/03 05:28:26;;;;;;;3.45;2.28;;;12.40;99.90;;;;;;5108388;27;20512;-84
2023/09/03 05:30:52;;;;;;;2.90;2.20;;;12.20;99.90;;;;;;5078894;27;20034;-85
2023/09/03 05:33:18;;;;;;;3.78;2.10;;;12.50;99.90;;;;;;5070968;27;20565;-85
2023/09/03 05:35:44;;;;;;;3.10;2.50;;;12.50;99.90;;;;;;5094096;27;20039;-85
2023/09/03 05:38:13;;;;;;;3.45;2.53;;;12.60;99.90;;;;;;5110430;27;20562;-85
2023/09/03 05:40:41;;;;;;;4.47;2.85;;;12.70;99.90;;;;;;5094502;27;20051;-85
2023/09/03 05:43:07;;;;;;;4.93;2.38;;;12.80;99.90;;;;;;5128897;27;20042;-84
2023/09/03 05:45:32;;;;;;;4.75;3.05;;;12.90;99.90;;;;;;5071259;27;20043;-85
2023/09/03 05:47:58;;;;;;;3.85;3.38;;;13.00;99.90;;;;;;5090547;27;20054;-84
2023/09/03 05:50:24;;;;;;;4.82;3.30;;;13.10;99.90;;;;;;5087295;27;20039;-84
2023/09/03 05:52:50;;;;;;;3.95;3.50;;;13.30;99.90;;;;;;5089258;27;20037;-85
2023/09/03 05:55:15;;;;;;;3.50;3.20;;;13.40;99.90;;;;;;5088747;27;20106;-84
2023/09/03 05:57:41;;;;;;;4.30;3.63;;;13.50;99.90;;;;;;5101306;27;20503;-84
2023/09/03 06:00:07;;;;;;;5.28;3.40;;;13.60;99.90;;;;;;5112490;27;20053;-84
2023/09/03 06:02:36;;;;;;;3.65;3.22;;;13.70;99.90;;;;;;5090415;27;20042;-84
2023/09/03 06:05:02;;;;;;;4.70;3.70;;;13.90;99.90;;;;;;5097928;27;20038;-84
2023/09/03 06:07:28;;;;;;;4.63;3.92;;;14.00;99.90;;;;;;5086801;27;20446;-83
2023/09/03 06:09:54;;;;;;;5.15;4.22;;;;;;;;;;5089137;27;20397;-83
2023/09/03 06:12:19;;;;;;;4.95;4.45;;;14.20;99.90;;;;;;5096928;27;20085;-84
2023/09/03 06:14:45;;;;;;;6.25;5.45;;;14.30;99.90;;;;;;5077273;27;20508;-83
2023/09/03 06:17:11;;;;;;;4.45;4.05;;;14.50;99.90;;;;;;5095487;27;20046;-83
2023/09/03 06:19:37;;;;;;;5.43;4.63;;;14.60;99.90;;;;;;5116479;27;20057;-84
2023/09/03 06:22:02;;;;;;;5.10;4.03;;;14.70;99.90;;;;;;5069725;27;20043;-84
2023/09/03 06:24:28;;;;;;;4.78;4.30;;;14.90;99.90;;;;;;5087167;27;20473;-84
2023/09/03 06:26:54;;;;;;;4.93;4.05;;;15.40;99.90;;;;;;5072870;27;20092;-84
2023/09/03 06:29:22;;;;;;;5.78;4.20;;;15.40;99.90;;;;;;5109552;27;20046;-83
2023/09/03 06:31:48;;;;;;;5.25;4.47;;;16.00;99.90;;;;;;5080576;27;20110;-82
2023/09/03 06:34:14;;;;;;;5.18;3.92;;;16.00;99.90;;;;;;5076967;27;20104;-82
2023/09/03 06:36:40;;;;;;;5.20;4.07;;;16.30;99.90;;;;;;5107072;27;20400;-83
2023/09/03 06:39:05;;;;;;;4.43;4.03;;;16.50;99.90;;;;;;5093614;27;20050;-83
2023/09/03 06:41:31;;;;;;;4.82;3.50;;;16.70;99.90;;;;;;5090798;27;20046;-83
2023/09/03 06:43:57;;;;;;;5.18;4.15;;;16.70;99.90;;;;;;5077780;27;20109;-84
2023/09/03 06:46:23;;;;;;;3.75;3.30;;;16.70;99.90;;;;;;5095822;27;20077;-83
2023/09/03 06:48:53;;;;;;;4.35;3.28;;;16.70;99.90;;;;;;5081347;27;20041;-84
2023/09/03 06:51:19;;;;;;;4.47;2.72;;;16.80;99.90;;;;;;5111409;27;20045;-83
2023/09/03 06:53:45;;;;;;;3.13;2.70;;;16.90;99.90;;;;;;5104535;28;20039;-84
2023/09/03 06:56:11;;;;;;;3.85;2.60;;;;;;;;;;5077873;27;20049;-83
2023/09/03 06:58:38;;;;;;;2.50;2.30;;;17.30;99.90;;;;;;5096668;27;20125;-83
2023/09/03 07:01:04;;;;;;;3.35;2.13;;;17.40;99.90;;;;;;5081724;27;20042;-83
2023/09/03 07:03:35;;;;;;;2.50;2.20;;;17.50;99.90;;;;;;5102694;27;20379;-82
2023/09/03 07:06:01;;;;;;;3.55;2.33;;;17.60;99.90;;;;;;5086909;28;20039;-82
2023/09/03 07:08:29;;;;;;;3.90;2.03;;;17.80;99.90;;;;;;5093420;27;20042;-83
2023/09/03 07:10:59;;;;;;;3.63;2.22;;;18.00;99.90;;;;;;5096280;27;20113;-82
2023/09/03 07:13:25;;;;;;;2.35;1.73;;;18.30;99.90;;;;;;5105125;27;20062;-82
2023/09/03 07:15:51;;;;;;;5.25;1.92;;;19.80;99.90;;;;;;5075569;27;20569;-81
2023/09/03 07:18:16;;;;;;;2.38;1.45;;;19.90;99.90;;;;;;5091613;28;20050;-81
2023/09/03 07:20:42;;;;;;;2.83;1.10;;;20.60;99.90;;;;;;5072724;27;20041;-81
2023/09/03 07:23:08;;;;;;;4.72;1.42;;;21.20;99.90;;;;;;5068268;27;20129;-81
2023/09/03 07:25:35;;;;;;;2.67;1.10;;;21.70;99.90;;;;;;5082237;27;20130;-80
2023/09/03 07:28:02;;;;;;;2.03;0.90;;;21.90;99.90;;;;;;5109384;27;20456;-81
2023/09/03 07:30:29;;;;;;;2.75;1.20;;;21.80;99.90;;;;;;5115000;27;20042;-81
2023/09/03 07:32:55;;;;;;;1.73;1.17;;;21.50;99.90;;;;;;5069962;27;20035;-81
2023/09/03 07:35:21;;;;;;;1.92;1.00;;;21.20;99.90;;;;;;5101959;27;20055;-81
2023/09/03 07:37:47;;;;;;;2.05;1.27;;;20.90;99.90;;;;;;5110411;27;20112;-91
2023/09/03 07:40:12;;;;;;;2.20;1.05;;;20.70;99.90;;;;;;5080461;27;20530;-91
2023/09/03 07:42:38;;;;;;;1.65;0.90;;;20.50;99.90;;;;;;5099970;27;20039;-91
2023/09/03 07:45:05;;;;;;;2.15;1.23;;;20.60;99.90;;;;;;5081472;27;20482;-87
2023/09/03 07:47:30;;;;;;;3.60;1.35;;;20.90;99.90;;;;;;5097692;27;20039;-92
2023/09/03 07:49:56;;;;;;;2.55;1.00;;;21.20;99.90;;;;;;5102605;27;20045;-93
2023/09/03 07:52:22;;;;;;;2.45;1.08;;;21.50;99.90;;;;;;5083774;27;20091;-93
2023/09/03 07:54:48;;;;;;;2.90;1.33;;;21.60;99.90;;;;;;5103721;27;20049;-90
2023/09/03 07:57:13;;;;;;;2.85;1.25;;;21.90;99.90;;;;;;5109144;27;20543;-92
2023/09/03 07:59:39;;;;;;;2.70;1.10;;;22.10;99.90;;;;;;5084299;27;20114;-94
2023/09/03 08:02:05;;;;;;;2.30;1.05;;;22.40;99.90;;;;;;5086338;27;20543;-95
2023/09/03 08:04:31;;;;;;;1.30;0.88;;;22.90;99.90;;;;;;5106037;27;20042;-93
2023/09/03 08:06:57;;;;;;;1.55;1.08;;;23.20;99.90;;;;;;5102528;27;20035;-94
2023/09/03 08:09:24;;;;;;;1.02;0.90;;;23.40;99.90;;;;;;5085361;27;20039;-92
2023/09/03 08:11:51;;;;;;;2.63;1.00;;;23.60;99.90;;;;;;5109388;27;20045;-92
2023/09/03 08:14:16;;;;;;;;;;;23.70;99.90;;;;;;5099740;27;20051;-95
2023/09/03 08:16:42;;;;;;;1.83;0.90;;;23.60;99.90;;;;;;5100882;27;19982;-93
2023/09/03 08:19:08;;;;;;;2.78;0.95;;;23.90;99.90;;;;;;5095908;27;20598;-92
2023/09/03 08:21:34;;;;;;;2.00;0.88;;;24.10;99.90;;;;;;5070973;27;20119;-90
2023/09/03 08:23:59;;;;;;;3.25;0.77;;;24.10;99.90;;;;;;5102496;27;20040;-93
2023/09/03 08:26:25;;;;;;;2.10;0.97;;;24.20;99.90;;;;;;5095966;27;20042;-92
2023/09/03 08:28:51;;;;;;;1.87;1.00;;;24.50;99.90;;;;;;5070693;27;20621;-91
2023/09/03 08:31:17;;;;;;;2.10;0.85;;;24.60;99.90;;;;;;5093271;27;20076;-91
2023/09/03 08:33:43;;;;;;;2.17;0.70;;;24.40;99.90;;;;;;5113115;27;20031;-92
2023/09/03 08:36:08;;;;;;;2.93;0.70;;;24.30;99.90;;;;;;5082196;27;20046;-92
2023/09/03 08:38:34;;;;;;;1.53;0.90;;;24.10;99.90;;;;;;5087117;27;20031;-93
2023/09/03 08:41:00;;;;;;;1.43;0.80;;;23.90;99.90;;;;;;5102251;27;20123;-91
2023/09/03 08:43:28;;;;;;;1.57;0.73;;;23.60;99.90;;;;;;5103640;27;20046;-89
2023/09/03 08:46:00;;;;;;;2.15;0.88;;;23.60;99.90;;;;;;5088611;27;20149;-83
2023/09/03 08:48:26;;;;;;;2.08;0.95;;;23.70;99.90;;;;;;5102473;27;20039;-87
2023/09/03 08:50:52;;;;;;;2.30;1.00;;;23.60;99.90;;;;;;5066477;27;20523;-84
2023/09/03 08:53:19;;;;;;;2.40;1.00;;;23.30;99.90;;;;;;5079452;27;20042;-85
2023/09/03 08:55:45;;;;;;;2.70;0.90;;;23.10;99.90;;;;;;5095974;27;20039;-84
2023/09/03 08:58:11;;;;;;;0.98;0.75;;;22.90;99.90;;;;;;5081301;27;20050;-89
2023/09/03 09:00:40;;;;;;;1.77;0.80;;;22.60;99.90;;;;;;5089765;27;20042;-87
2023/09/03 09:03:11;;;;;;;2.28;0.80;;;22.40;99.90;;;;;;5107304;27;20054;-79
2023/09/03 09:05:40;;;;;;;1.45;0.95;;;22.30;99.90;;;;;;5106983;27;20094;-81
2023/09/03 09:08:06;;;;;;;1.25;0.73;;;22.20;99.90;;;;;;5105227;27;20092;-79
2023/09/03 09:10:40;;;;;;;2.53;1.00;;;22.10;99.90;;;;;;5106015;27;20053;-80
2023/09/03 09:13:10;;;;;;;3.30;0.80;;;22.00;99.90;;;;;;5104467;27;20059;-80
2023/09/03 09:15:36;;;;;;;1.60;0.77;;;21.90;99.90;;;;;;5121586;27;20743;-84
2023/09/03 09:18:08;;;;;;;3.28;0.88;;;21.80;99.90;;;;;;5079902;27;20050;-82
2023/09/03 09:20:37;;;;;;;2.40;1.00;;;21.70;99.90;;;;;;5088229;27;20143;-82
2023/09/03 09:23:03;;;;;;;1.77;0.70;;;21.70;99.90;;;;;;5102424;27;20588;-81
2023/09/03 09:25:28;;;;;;;2.40;1.00;;;21.60;99.90;;;;;;5077329;27;20095;-82
2023/09/03 09:27:56;;;;;;;2.90;0.93;;;21.60;99.90;;;;;;5086795;27;20708;-83
2023/09/03 09:30:26;;;;;;;1.80;0.80;;;21.60;99.90;;;;;;5101927;27;20117;-82
2023/09/03 09:33:03;;;;;;;1.13;0.80;;;21.70;99.90;;;;;;5104396;27;20122;-82
2023/09/03 09:35:33;;;;;;;0.80;0.60;;;21.70;99.90;;;;;;5084674;27;20066;-81
2023/09/03 09:38:06;;;;;;;1.52;0.60;;;21.80;99.90;;;;;;5085587;27;20057;-82
2023/09/03 09:40:36;;;;;;;1.13;0.57;;;21.60;99.90;;;;;;5103749;27;20155;-81
2023/09/03 09:43:06;;;;;;;1.70;0.70;;;21.60;99.90;;;;;;5120965;27;20104;-82
2023/09/03 09:45:33;;;;;;;9.57;1.10;;;21.60;99.90;;;;;;5127607;27;20039;-82
2023/09/03 09:48:08;;;;;;;1.58;0.60;;;21.60;99.90;;;;;;5120902;27;20046;-83
2023/09/03 09:50:36;;;;;;;1.50;0.80;;;21.60;99.90;;;;;;5105922;27;20035;-82
2023/09/03 09:53:03;;;;;;;1.35;0.73;;;21.60;99.90;;;;;;5122226;27;20131;-81
2023/09/03 09:55:32;;;;;;;1.48;0.75;;;21.50;99.90;;;;;;5105740;27;20073;-84
2023/09/03 09:57:58;;;;;;;1.52;0.80;;;21.60;99.90;;;;;;5087195;27;20050;-83
2023/09/03 10:00:39;;;;;;;1.38;0.70;;;21.60;99.90;;;;;;5120583;27;20034;-82
2023/09/03 10:03:07;;;;;;;1.00;0.80;;;21.70;99.90;;;;;;5103544;27;20051;-81
2023/09/03 10:05:35;;;;;;;1.55;0.93;;;21.70;99.90;;;;;;5111200;27;20035;-83
2023/09/03 10:08:02;;;;;;;1.50;0.90;;;21.60;99.90;;;;;;5093000;27;20055;-82
2023/09/03 10:10:27;;;;;;;;;;;21.60;99.90;;;;;;5123026;27;20047;-84
2023/09/03 10:12:53;;;;;;;1.52;0.80;;;21.50;99.90;;;;;;5086113;27;20013;-83
2023/09/03 10:15:21;;;;;;;1.00;0.80;;;21.60;99.90;;;;;;5104680;27;20493;-82
2023/09/03 10:17:51;;;;;;;1.13;0.70;;;21.60;99.90;;;;;;5105250;27;20046;-84
2023/09/03 10:20:19;;;;;;;1.40;0.63;;;21.70;99.90;;;;;;5103399;27;20440;-80
2023/09/03 10:22:49;;;;;;;1.98;1.02;;;21.70;99.90;;;;;;5119982;27;20035;-82
2023/09/03 10:25:20;;;;;;;1.65;0.90;;;21.80;99.90;;;;;;5120885;27;20034;-83
2023/09/03 10:27:57;;;;;;;2.78;1.30;;;21.80;99.90;;;;;;5111715;27;20053;-84
2023/09/03 10:30:29;;;;;;;2.13;1.25;;;21.70;99.90;;;;;;5119133;27;20046;-84
2023/09/03 10:32:55;;;;;;;1.10;0.70;;;21.90;99.90;;;;;;5105862;27;20375;-83
2023/09/03 10:35:21;;;;;;;1.57;0.80;;;22.00;99.90;;;;;;5087771;27;20096;-82
2023/09/03 10:37:50;;;;;;;1.17;0.68;;;22.20;99.90;;;;;;5085665;27;20473;-81
2023/09/03 10:40:24;;;;;;;3.22;1.10;;;22.40;99.90;;;;;;5102992;27;20138;-81
2023/09/03 10:42:52;;;;;;;1.35;0.70;;;22.50;99.90;;;;;;5099831;27;20047;-83
2023/09/03 10:45:18;;;;;;;1.33;0.80;;;22.50;99.90;;;;;;5097646;27;20057;-82
2023/09/03 10:47:56;;;;;;;1.63;0.70;;;22.50;99.90;;;;;;5100889;27;21359;-82
2023/09/03 10:50:52;;;;;;;2.20;0.63;;;22.50;99.90;;;;;;5102547;27;20046;-82
2023/09/03 10:53:40;;;;;;;1.25;0.60;;;22.50;99.90;;;;;;5119103;27;20043;-84
2023/09/03 10:56:16;;;;;;;1.05;0.68;;;22.50;99.90;;;;;;5105093;27;20026;-82
2023/09/03 10:59:08;;;;;;;1.95;0.70;;;22.40;99.90;;;;;;5105736;27;20502;-82
2023/09/03 11:01:34;;;;;;;0.85;0.60;;;22.40;99.90;;;;;;5102962;27;20141;-84
2023/09/03 11:04:04;;;;;;;1.63;0.68;;;22.50;99.90;;;;;;5082480;27;20130;-81
2023/09/03 11:06:33;;;;;;;1.05;0.70;;;22.40;99.90;;;;;;5125803;27;20692;-83
2023/09/03 11:08:59;;;;;;;1.50;1.00;;;22.20;99.90;;;;;;5125703;27;20046;-80
2023/09/03 11:11:30;;;;;;;0.95;0.50;;;22.10;99.90;;;;;;5124892;27;20397;-81
2023/09/03 11:13:56;;;;;;;1.77;0.80;;;22.00;99.90;;;;;;5098836;27;20049;-81
2023/09/03 11:16:30;;;;;;;2.05;0.85;;;22.00;99.90;;;;;;5125875;27;20051;-80
2023/09/03 11:18:58;;;;;;;2.13;0.90;;;22.20;99.90;;;;;;5090919;27;20043;-80
2023/09/03 11:21:27;;;;;;;1.88;0.85;;;22.20;99.90;;;;;;5124213;27;20491;-82
2023/09/03 11:24:02;;;;;;;2.13;1.00;;;22.20;99.90;;;;;;5106956;27;20043;-81
2023/09/03 11:26:33;;;;;;;1.63;0.85;;;22.10;99.90;;;;;;5107730;27;20047;-80
2023/09/03 11:29:00;;;;;;;1.15;0.80;;;21.80;99.90;;;;;;5106275;27;20666;-82
2023/09/03 11:31:27;;;;;;;1.77;0.80;;;21.60;99.90;;;;;;5090186;27;20050;-81
2023/09/03 11:33:53;;;;;;;3.13;0.90;;;21.50;99.90;;;;;;5124276;27;20047;-82
2023/09/03 11:36:24;;;;;;;1.10;0.60;;;21.50;99.90;;;;;;5124942;27;20114;-81
2023/09/03 11:38:55;;;;;;;1.45;0.88;;;21.50;99.90;;;;;;5123783;27;20043;-80
2023/09/03 11:41:21;;;;;;;1.63;0.63;;;21.50;99.90;;;;;;5114736;27;20046;-83
2023/09/03 11:43:48;;;;;;;1.60;0.80;;;21.60;99.90;;;;;;5106939;27;20670;-81
2023/09/03 11:46:16;;;;;;;1.67;0.70;;;21.70;99.90;;;;;;5107439;27;20043;-83
2023/09/03 11:48:49;;;;;;;0.98;0.47;;;21.90;99.90;;;;;;5107386;27;20042;-82
2023/09/03 11:51:25;;;;;;;2.63;0.60;;;22.00;99.90;;;;;;5121398;27;20034;-82
2023/09/03 11:53:51;;;;;;;1.52;0.68;;;22.00;99.90;;;;;;5106433;27;20073;-83
2023/09/03 11:56:20;;;;;;;1.27;0.87;;;22.00;99.90;;;;;;5081288;27;20118;-85
2023/09/03 11:58:55;;;;;;;1.73;0.80;;;22.00;99.90;;;;;;5107826;27;20066;-82
2023/09/03 12:01:21;;;;;;;2.08;0.65;;;22.00;99.90;;;;;;5104297;27;20077;-83
2023/09/03 12:03:47;;;;;;;0.85;0.65;;;21.90;99.90;;;;;;5090685;27;20046;-80
2023/09/03 12:06:13;;;;;;;1.15;0.77;;;21.90;99.90;;;;;;5107078;27;20099;-83
2023/09/03 12:08:39;;;;;;;1.10;0.60;;;22.00;99.90;;;;;;5122748;27;20038;-84
2023/09/03 12:11:05;;;;;;;1.60;0.70;;;22.10;99.90;;;;;;5115333;27;20042;-80
2023/09/03 12:13:38;;;;;;;1.05;0.60;;;22.00;99.90;;;;;;5087710;27;20062;-81
2023/09/03 12:16:10;;;;;;;1.40;0.93;;;22.00;99.90;;;;;;5106580;27;20165;-82
2023/09/03 12:18:38;;;;;;;1.38;0.70;;;21.90;99.90;;;;;;5106151;27;20054;-82
2023/09/03 12:21:07;;;;;;;1.80;0.75;;;21.90;99.90;;;;;;5124350;27;20046;-84
2023/09/03 12:23:35;;;;;;;1.83;0.60;;;21.80;99.90;;;;;;5105701;27;20165;-83
2023/09/03 12:26:01;;;;;;;1.83;0.70;;;21.80;99.90;;;;;;5106281;27;20055;-82
2023/09/03 12:28:36;;;;;;;1.20;0.65;;;21.80;99.90;;;;;;5106908;27;20045;-80
2023/09/03 12:31:04;;;;;;;1.75;0.68;;;21.90;99.90;;;;;;5106751;27;20046;-81
2023/09/03 12:33:33;;;;;;;1.58;0.57;;;22.00;99.90;;;;;;5107519;27;20050;-81
2023/09/03 12:36:16;;;;;;;1.45;0.70;;;22.00;99.90;;;;;;5106642;27;20118;-82
2023/09/03 12:38:59;;;;;;;1.33;0.52;;;22.10;99.90;;;;;;5105312;27;20082;-81
2023/09/03 12:41:32;;;;;;;1.30;0.70;;;22.20;99.90;;;;;;5088706;27;20035;-82
2023/09/03 12:44:07;;;;;;;1.80;0.50;;;22.30;99.90;;;;;;5113018;27;20046;-79
2023/09/03 12:46:35;;;;;;;1.95;0.50;;;22.30;99.90;;;;;;5104597;27;20089;-81
2023/09/03 12:49:02;;;;;;;1.40;0.57;;;22.30;99.90;;;;;;5122481;27;20074;-80
2023/09/03 12:51:29;;;;;;;;;;;22.40;99.90;;;;;;5122912;27;20051;-82
2023/09/03 12:53:55;;;;;;;0.80;0.50;;;22.40;99.90;;;;;;5086423;27;19915;-80
2023/09/03 12:56:21;;;;;;;2.50;0.50;;;22.50;99.90;;;;;;5121927;27;20519;-80